Time;durP1;ratioP1;P1;durP2;ratioP2;P2;SDS_P1;SDS_P2;PMS_P1;PMS_P2;Temp;Humidity;BMP_temperature;BMP_pressure;BME280_temperature;BME280_humidity;BME280_pressure;Samples;Min_cycle;Max_cycle;Signal;HPM_P1;HPM_P2
2023/05/30 00:00:00;;;;;;;29.23;18.80;;;;;;;39.99;36.26;101122.13;5034327;28;20956;-86
2023/05/30 00:02:34;;;;;;;22.37;15.37;;;;;;;39.94;36.69;101119.53;5034333;28;20236;-88
2023/05/30 00:05:01;;;;;;;20.17;15.63;;;;;;;39.95;36.53;101121.16;5034633;28;20442;-87
2023/05/30 00:07:26;;;;;;;31.73;20.47;;;;;;;39.99;36.50;101114.78;5034742;28;20461;-86
2023/05/30 00:09:52;;;;;;;18.87;17.30;;;;;;;40.01;36.49;101117.16;5036036;28;20474;-85
2023/05/30 00:12:18;;;;;;;29.70;18.07;;;;;;;39.99;36.61;101117.50;5034626;28;20189;-86
2023/05/30 00:14:47;;;;;;;22.70;15.87;;;;;;;40.00;36.33;101115.56;5034604;28;20517;-88
2023/05/30 00:17:16;;;;;;;25.03;15.80;;;;;;;39.94;36.64;101114.91;5034490;28;20428;-87
2023/05/30 00:19:44;;;;;;;21.57;15.53;;;;;;;40.00;36.65;101121.00;5036249;28;20537;-87
2023/05/30 00:22:12;;;;;;;23.23;14.90;;;;;;;39.95;36.50;101115.72;5051558;28;20518;-87
2023/05/30 00:24:38;;;;;;;19.43;14.17;;;;;;;39.87;36.55;101111.84;5000246;28;20890;-87
2023/05/30 00:27:05;;;;;;;20.43;15.43;;;;;;;39.94;36.42;101117.63;5018744;28;20430;-86
2023/05/30 00:29:31;;;;;;;27.03;15.63;;;;;;;39.94;36.55;101117.63;5035630;28;20534;-87
2023/05/30 00:31:57;;;;;;;24.70;15.60;;;;;;;39.91;36.41;101122.91;5019126;28;20462;-87
2023/05/30 00:34:23;;;;;;;20.00;12.73;;;;;;;39.88;36.30;101124.31;5035101;28;20517;-85
2023/05/30 00:36:49;;;;;;;17.23;12.20;;;;;;;39.84;36.46;101117.94;5029001;28;20514;-87
2023/05/30 00:39:16;;;;;;;22.00;11.10;;;;;;;39.87;36.55;101120.00;5034571;28;20554;-87
2023/05/30 00:41:42;;;;;;;17.60;11.23;;;;;;;39.79;36.35;101101.78;5028807;28;20422;-86
2023/05/30 00:44:08;;;;;;;15.67;10.60;;;;;;;39.78;36.62;101102.88;5029522;28;20453;-86
2023/05/30 00:46:34;;;;;;;21.03;12.50;;;;;;;39.73;36.69;101101.09;5028167;28;20434;-86
2023/05/30 00:49:03;;;;;;;15.87;8.50;;;;;;;39.72;36.69;101104.94;5035290;28;20426;-87
2023/05/30 00:51:31;;;;;;;16.83;9.57;;;;;;;39.80;36.42;101105.28;5030219;28;20976;-87
2023/05/30 00:53:59;;;;;;;21.17;11.13;;;;;;;39.76;36.73;101096.94;5027038;28;20852;-86
2023/05/30 00:56:26;;;;;;;19.70;10.90;;;;;;;39.84;36.71;101101.63;5020303;28;20462;-87
2023/05/30 00:58:53;;;;;;;17.83;10.50;;;;;;;39.85;36.66;101099.72;5015713;28;20495;-84
2023/05/30 01:01:20;;;;;;;17.13;9.80;;;;;;;39.91;36.68;101091.09;5033172;28;20446;-87
2023/05/30 01:03:50;;;;;;;17.83;11.30;;;;;;;39.89;36.04;101087.09;5034915;28;20466;-88
2023/05/30 01:06:17;;;;;;;21.70;11.30;;;;;;;39.92;36.33;101087.28;5034564;28;20426;-87
2023/05/30 01:08:43;;;;;;;18.67;10.77;;;;;;;39.96;36.28;101090.97;5035089;28;20868;-87
2023/05/30 01:11:33;;;;;;;16.03;11.63;;;;;;;39.93;36.08;101094.31;5034568;28;21071;-87
2023/05/30 01:14:21;;;;;;;16.83;11.83;;;;;;;39.90;36.31;101091.41;5033693;28;20527;-87
2023/05/30 01:16:59;;;;;;;22.83;12.60;;;;;;;39.87;36.41;101087.41;5034494;28;20424;-87
2023/05/30 01:19:47;;;;;;;17.47;10.50;;;;;;;39.89;36.28;101084.38;5033132;28;20476;-87
2023/05/30 01:23:00;;;;;;;13.93;9.67;;;;;;;39.87;36.43;101081.19;5030560;28;20427;-87
2023/05/30 01:25:41;;;;;;;16.27;11.17;;;;;;;39.90;36.32;101085.97;5034665;28;20430;-87
2023/05/30 01:28:14;;;;;;;14.43;9.13;;;;;;;39.90;36.60;101085.97;5048750;28;20423;-87
2023/05/30 01:30:45;;;;;;;18.87;10.60;;;;;;;39.86;36.13;101093.97;5049606;28;20450;-88
2023/05/30 01:33:13;;;;;;;12.97;8.30;;;;;;;39.92;35.90;101086.47;5031431;28;20484;-87
2023/05/30 01:35:44;;;;;;;15.97;9.77;;;;;;;39.90;36.01;101083.25;5034684;28;20447;-86
2023/05/30 01:38:10;;;;;;;20.87;13.10;;;;;;;39.90;36.00;101085.97;5016344;28;21024;-87
2023/05/30 01:40:37;;;;;;;22.73;16.70;;;;;;;39.89;36.25;101084.38;5034537;28;20902;-86
2023/05/30 01:43:18;;;;;;;26.60;15.33;;;;;;;39.84;36.49;101079.06;5032728;28;20439;-85
2023/05/30 01:46:09;;;;;;;26.20;15.60;;;;;;;39.80;36.64;101080.84;5032969;28;20517;-86
2023/05/30 01:48:50;;;;;;;24.93;14.63;;;;;;;39.80;36.63;101072.69;5022061;28;20448;-86
2023/05/30 01:51:29;;;;;;;21.70;14.33;;;;;;;39.80;36.36;101061.81;5026098;28;20445;-87
2023/05/30 01:54:00;;;;;;;18.10;14.77;;;;;;;39.80;36.38;101059.13;5044455;28;20423;-88
2023/05/30 01:56:27;;;;;;;25.27;17.80;;;;;;;39.83;36.38;101055.75;5027392;28;20447;-87
2023/05/30 01:58:58;;;;;;;28.03;20.00;;;;;;;39.76;36.37;101046.16;5034257;28;20841;-86
2023/05/30 02:01:29;;;;;;;28.80;19.73;;;;;;;39.73;36.94;101044.06;5033602;28;20454;-86
2023/05/30 02:03:56;;;;;;;32.40;21.87;;;;;;;39.77;36.58;101046.94;5033845;28;20478;-87
2023/05/30 02:06:24;;;;;;;31.03;23.80;;;;;;;39.77;36.76;101052.38;5032854;28;20449;-87
2023/05/30 02:08:50;;;;;;;37.83;23.50;;;;;;;39.73;36.29;101041.38;5032105;28;20857;-86
2023/05/30 02:11:17;;;;;;;25.57;21.80;;;;;;;39.76;36.59;101040.72;5033797;28;20427;-87
2023/05/30 02:13:46;;;;;;;30.87;23.40;;;;;;;39.75;36.39;101044.56;5034857;28;20511;-87
2023/05/30 02:16:13;;;;;;;24.73;19.00;;;;;;;39.77;36.42;101046.94;5041172;28;20433;-87
2023/05/30 02:18:41;;;;;;;19.00;17.23;;;;;;;39.80;36.40;101046.34;5034699;28;20517;-86
2023/05/30 02:21:08;;;;;;;23.80;18.70;;;;;;;39.80;36.42;101040.09;5034890;28;20941;-87
2023/05/30 02:23:35;;;;;;;23.00;17.13;;;;;;;39.76;36.08;101046.16;5034658;28;20457;-87
2023/05/30 02:26:01;;;;;;;23.40;15.93;;;;;;;39.75;36.42;101041.84;5033333;28;20819;-87
2023/05/30 02:28:27;;;;;;;20.63;15.43;;;;;;;39.69;36.83;101048.53;5028525;28;20419;-87
2023/05/30 02:30:55;;;;;;;26.10;17.23;;;;;;;39.71;36.58;101043.56;5052505;28;20190;-86
2023/05/30 02:33:21;;;;;;;20.03;16.20;;;;;;;39.55;36.32;101047.81;5032248;28;20423;-87
2023/05/30 02:35:47;;;;;;;25.20;16.57;;;;;;;39.66;35.98;101051.88;5032358;28;20504;-86
2023/05/30 02:38:13;;;;;;;22.20;15.17;;;;;;;39.69;36.11;101050.44;5021884;28;20230;-87
2023/05/30 02:40:38;;;;;;;21.07;15.00;;;;;;;39.66;36.35;101051.88;5034430;28;20455;-88
2023/05/30 02:43:11;;;;;;;19.37;14.10;;;;;;;39.67;35.92;101056.19;5033938;28;20941;-87
2023/05/30 02:45:37;;;;;;;29.83;17.23;;;;;;;39.71;36.32;101059.88;5033722;28;20422;-87
2023/05/30 02:48:03;;;;;;;25.87;18.57;;;;;;;39.71;35.74;101057.16;5017626;28;20800;-87
2023/05/30 02:50:29;;;;;;;25.90;18.60;;;;;;;39.69;36.15;101069.44;5034326;28;20423;-86
2023/05/30 02:52:57;;;;;;;29.47;17.97;;;;;;;39.66;36.24;101060.03;5017773;28;20450;-88
2023/05/30 02:55:24;;;;;;;24.47;16.30;;;;;;;39.70;35.91;101057.47;5018883;28;20433;-86
2023/05/30 02:57:52;;;;;;;26.90;16.97;;;;;;;39.57;36.77;101056.44;5051479;28;20458;-87
2023/05/30 03:00:20;;;;;;;22.03;17.70;;;;;;;39.66;36.38;101062.75;5034091;28;20953;-89
2023/05/30 03:02:49;;;;;;;28.73;19.30;;;;;;;39.70;35.90;101060.97;5033867;28;20490;-87
2023/05/30 03:05:17;;;;;;;27.10;21.77;;;;;;;39.74;36.04;101061.16;5047623;28;20429;-87
2023/05/30 03:07:45;;;;;;;26.43;18.53;;;;;;;39.67;35.84;101053.47;5030651;28;20865;-88
2023/05/30 03:10:12;;;;;;;46.53;35.13;;;;;;;39.67;35.84;101061.63;5034319;28;20427;-87
2023/05/30 03:12:38;;;;;;;54.43;44.70;;;;;;;39.66;36.12;101062.75;5051495;28;20465;-87
2023/05/30 03:15:06;;;;;;;43.70;34.70;;;;;;;39.63;35.94;101071.50;5033990;28;20426;-86
2023/05/30 03:17:32;;;;;;;36.40;34.60;;;;;;;39.64;36.53;101078.53;5051559;28;20521;-86
2023/05/30 03:19:58;;;;;;;41.10;39.10;;;;;;;39.65;35.95;101077.41;5032992;28;20514;-85
2023/05/30 03:22:24;;;;;;;29.13;27.70;;;;;;;39.65;36.00;101074.69;5034052;28;20426;-86
2023/05/30 03:24:50;;;;;;;35.47;32.90;;;;;;;39.66;36.08;101076.31;5034215;28;20427;-87
2023/05/30 03:27:16;;;;;;;35.83;29.07;;;;;;;39.65;35.83;101080.13;5034036;28;20972;-87
2023/05/30 03:29:42;;;;;;;31.03;27.47;;;;;;;39.63;36.15;101076.94;5033707;28;20426;-87
2023/05/30 03:32:08;;;;;;;32.23;30.63;;;;;;;39.68;36.33;101081.44;5033791;28;20241;-87
2023/05/30 03:34:35;;;;;;;35.53;27.43;;;;;;;39.70;36.30;101084.63;5017643;28;20426;-87
2023/05/30 03:37:01;;;;;;;37.03;31.80;;;;;;;39.63;35.84;101079.66;5034067;28;20418;-87
2023/05/30 03:39:28;;;;;;;39.73;31.40;;;;;;;39.66;36.18;101087.19;5052131;28;20468;-87
2023/05/30 03:41:54;;;;;;;41.70;34.63;;;;;;;39.62;36.08;101069.09;5051573;28;20932;-87
2023/05/30 03:44:21;;;;;;;53.67;51.03;;;;;;;39.65;36.13;101077.41;5033929;28;20446;-89
2023/05/30 03:46:49;;;;;;;42.30;36.10;;;;;;;39.66;36.03;101078.25;5033883;28;20450;-88
2023/05/30 03:49:15;;;;;;;34.30;28.70;;;;;;;39.68;36.14;101070.56;5037168;28;20496;-87
2023/05/30 03:51:41;;;;;;;34.97;26.20;;;;;;;39.61;36.18;101076.44;5054925;28;20434;-87
2023/05/30 03:54:07;;;;;;;35.03;30.80;;;;;;;39.62;36.43;101069.09;5037700;28;20807;-87
2023/05/30 03:56:32;;;;;;;35.33;25.97;;;;;;;39.66;36.20;101075.53;5036642;28;20806;-85
2023/05/30 03:59:00;;;;;;;37.73;30.40;;;;;;;39.58;36.32;101076.22;5037121;28;20549;-86
2023/05/30 04:01:27;;;;;;;41.63;36.63;;;;;;;39.55;36.60;101072.25;5036897;28;20199;-86
2023/05/30 04:03:55;;;;;;;36.33;33.63;;;;;;;39.52;36.53;101067.41;5037095;28;20863;-87
2023/05/30 04:06:21;;;;;;;37.50;35.63;;;;;;;39.48;36.44;101050.19;5036531;28;20949;-87
2023/05/30 04:08:51;;;;;;;35.77;31.47;;;;;;;39.52;36.29;101056.56;5023338;28;20531;-89
2023/05/30 04:11:19;;;;;;;35.23;32.77;;;;;;;39.56;36.46;101049.41;5025951;28;20430;-89
2023/05/30 04:13:46;;;;;;;45.47;31.47;;;;;;;39.53;36.51;101060.88;5035536;28;20430;-88
2023/05/30 04:16:13;;;;;;;30.83;27.90;;;;;;;39.50;36.66;101064.22;5036983;28;20945;-88
2023/05/30 04:18:44;;;;;;;36.17;28.47;;;;;;;39.48;36.62;101066.47;5036512;28;20911;-87
2023/05/30 04:21:15;;;;;;;39.37;27.13;;;;;;;39.50;36.56;101064.22;5037530;28;21018;-86
2023/05/30 04:23:42;;;;;;;31.40;27.30;;;;;;;39.50;36.63;101064.22;5054407;28;20454;-88
2023/05/30 04:26:11;;;;;;;36.20;26.50;;;;;;;39.50;36.55;101065.03;5035451;28;20430;-89
2023/05/30 04:28:58;;;;;;;32.00;26.57;;;;;;;39.47;36.94;101064.84;5049874;28;20413;-90
2023/05/30 04:31:26;;;;;;;38.33;28.40;;;;;;;39.43;36.48;101070.09;5052679;28;20528;-90
2023/05/30 04:33:56;;;;;;;29.10;19.37;;;;;;;39.44;37.00;101070.91;5052867;28;20423;-91
2023/05/30 04:36:22;;;;;;;29.13;24.07;;;;;;;39.37;37.09;101076.78;5017972;28;20439;-89
2023/05/30 04:38:49;;;;;;;29.90;22.37;;;;;;;39.34;36.84;101077.38;5035744;28;20535;-89
2023/05/30 04:41:20;;;;;;;27.60;21.67;;;;;;;39.35;36.87;101080.91;5034778;28;20431;-87
2023/05/30 04:44:09;;;;;;;35.90;22.13;;;;;;;39.38;36.63;101072.16;5036835;28;20458;-89
2023/05/30 04:46:35;;;;;;;33.37;25.40;;;;;;;39.37;36.78;101071.34;5051187;28;20426;-88
2023/05/30 04:49:02;;;;;;;38.40;26.10;;;;;;;39.41;36.88;101087.78;5036718;28;20427;-86
2023/05/30 04:51:28;;;;;;;33.23;26.27;;;;;;;39.38;36.76;101070.22;5036304;28;20435;-87
2023/05/30 04:53:55;;;;;;;39.50;26.57;;;;;;;39.39;36.65;101085.41;5036605;28;20438;-87
2023/05/30 04:56:21;;;;;;;38.47;25.90;;;;;;;39.41;36.84;101077.78;5033746;28;20426;-87
2023/05/30 04:58:49;;;;;;;34.70;26.73;;;;;;;39.38;36.60;101070.22;5035736;28;20536;-87
2023/05/30 05:01:18;;;;;;;36.37;29.03;;;;;;;39.38;36.61;101070.22;5036056;28;20526;-87
2023/05/30 05:03:45;;;;;;;34.73;27.50;;;;;;;39.40;36.54;101072.63;5035862;28;20470;-86
2023/05/30 05:06:13;;;;;;;34.93;24.57;;;;;;;39.35;36.67;101075.47;5031491;28;20506;-88
2023/05/30 05:08:39;;;;;;;32.40;27.37;;;;;;;39.34;36.93;101076.59;5027942;28;20474;-86
2023/05/30 05:11:07;;;;;;;34.27;23.47;;;;;;;39.41;36.63;101085.91;5052862;28;20522;-87
2023/05/30 05:13:33;;;;;;;28.73;23.97;;;;;;;39.38;36.67;101077.56;5036106;28;20940;-87
2023/05/30 05:16:00;;;;;;;27.40;22.40;;;;;;;39.41;36.79;101087.78;5035405;28;20431;-89
2023/05/30 05:18:27;;;;;;;36.27;25.63;;;;;;;39.39;36.49;101090.03;5035651;28;20504;-86
2023/05/30 05:20:53;;;;;;;33.57;24.90;;;;;;;39.39;36.64;101095.47;5035096;28;20429;-88
2023/05/30 05:23:19;;;;;;;32.50;23.60;;;;;;;39.39;37.14;101100.88;5036164;28;20419;-89
2023/05/30 05:25:45;;;;;;;34.93;23.77;;;;;;;39.40;36.96;101108.72;5052884;28;20434;-89
2023/05/30 05:28:11;;;;;;;36.37;26.90;;;;;;;39.39;36.95;101109.81;5031672;28;20452;-88
2023/05/30 05:30:37;;;;;;;34.80;24.90;;;;;;;39.48;36.59;101115.31;5035608;28;20453;-88
2023/05/30 05:33:03;;;;;;;36.00;24.47;;;;;;;39.50;36.89;101119.31;5036157;28;20433;-86
2023/05/30 05:35:30;;;;;;;39.70;25.90;;;;;;;39.51;36.86;101114.69;5049745;28;20419;-88
2023/05/30 05:37:57;;;;;;;43.03;28.93;;;;;;;39.56;36.41;101125.41;5035433;28;20544;-88
2023/05/30 05:40:27;;;;;;;37.90;30.50;;;;;;;39.54;36.54;101126.84;5035224;28;20185;-89
2023/05/30 05:42:52;;;;;;;43.90;35.80;;;;;;;39.52;36.49;101129.88;5016201;28;20451;-89
2023/05/30 05:45:18;;;;;;;54.17;45.53;;;;;;;39.48;37.04;101132.41;5034292;28;20493;-88
2023/05/30 05:47:44;;;;;;;53.80;47.37;;;;;;;39.47;36.82;101138.13;5023155;28;20185;-88
2023/05/30 05:50:10;;;;;;;55.77;43.83;;;;;;;39.50;36.86;101145.66;5034392;28;20426;-88
2023/05/30 05:52:36;;;;;;;40.60;31.73;;;;;;;39.46;36.29;101152.81;5022946;28;20260;-88
2023/05/30 05:55:07;;;;;;;46.27;31.10;;;;;;;39.43;36.80;101156.97;5030166;28;20431;-87
2023/05/30 05:57:46;;;;;;;53.63;30.70;;;;;;;39.45;36.99;101159.38;5046451;28;20706;-89
2023/05/30 06:00:23;;;;;;;37.07;28.30;;;;;;;39.44;36.65;101168.63;5047718;28;20431;-83
2023/05/30 06:02:50;;;;;;;44.17;28.77;;;;;;;39.41;37.10;101171.94;5025408;28;20450;-89
2023/05/30 06:05:25;;;;;;;44.57;31.00;;;;;;;39.44;36.93;101174.06;5035847;28;20475;-83
2023/05/30 06:08:34;;;;;;;35.20;26.40;;;;;;;39.55;36.84;101188.97;4985509;28;20534;-81
2023/05/30 06:11:03;;;;;;;46.10;32.53;;;;;;;39.55;37.21;101188.19;5016999;28;20439;-90
2023/05/30 06:13:35;;;;;;;42.47;33.40;;;;;;;39.55;37.28;101188.97;5034290;28;20461;-82
2023/05/30 06:16:05;;;;;;;44.20;34.70;;;;;;;39.54;37.05;101194.72;5043138;28;20443;-83
2023/05/30 06:18:36;;;;;;;50.50;38.23;;;;;;;39.59;37.04;101194.56;5060874;28;20473;-84
2023/05/30 06:21:17;;;;;;;69.30;46.83;;;;;;;39.58;37.24;101199.22;5041371;28;20415;-85
2023/05/30 06:23:49;;;;;;;53.87;45.70;;;;;;;39.60;37.43;101202.47;5037234;28;20425;-91
2023/05/30 06:26:15;;;;;;;62.63;48.30;;;;;;;39.70;37.04;101210.34;5030633;28;20601;-89
2023/05/30 06:28:41;;;;;;;58.33;45.97;;;;;;;39.72;37.33;101219.00;5033331;28;20427;-90
2023/05/30 06:31:07;;;;;;;52.53;42.67;;;;;;;39.74;36.93;101222.19;5034455;28;20899;-79
2023/05/30 06:33:33;;;;;;;51.67;38.77;;;;;;;39.72;37.37;101224.44;5022302;28;20422;-92
2023/05/30 06:35:59;;;;;;;37.23;32.60;;;;;;;39.84;37.39;101221.16;5034859;28;20226;-90
2023/05/30 06:38:25;;;;;;;49.77;35.17;;;;;;;39.91;36.94;101229.66;5034461;28;20466;-90
2023/05/30 06:40:51;;;;;;;41.10;30.33;;;;;;;39.97;36.89;101233.84;5053005;28;20427;-90
2023/05/30 06:43:17;;;;;;;41.47;30.70;;;;;;;40.02;36.84;101235.59;5034111;28;20453;-91
2023/05/30 06:45:43;;;;;;;41.40;28.63;;;;;;;40.00;36.65;101238.63;5050125;28;20211;-90
2023/05/30 06:48:09;;;;;;;40.57;31.57;;;;;;;40.04;36.81;101249.72;5032763;28;20435;-91
2023/05/30 06:50:35;;;;;;;37.70;25.70;;;;;;;40.06;36.74;101249.41;5034143;28;20427;-88
2023/05/30 06:53:01;;;;;;;41.37;27.70;;;;;;;40.11;36.83;101258.22;5034193;28;20650;-90
2023/05/30 06:55:27;;;;;;;42.63;30.07;;;;;;;40.15;36.66;101267.38;5034443;28;20449;-89
2023/05/30 06:57:56;;;;;;;38.60;28.20;;;;;;;40.18;36.76;101266.72;5034052;28;20454;-90
2023/05/30 07:00:22;;;;;;;35.50;26.40;;;;;;;40.23;36.91;101265.78;5052790;28;20184;-89
2023/05/30 07:02:48;;;;;;;37.47;28.00;;;;;;;40.26;36.66;101270.59;5034104;28;20446;-88
2023/05/30 07:05:14;;;;;;;43.60;25.70;;;;;;;40.30;36.45;101277.00;5034191;28;20486;-89
2023/05/30 07:07:43;;;;;;;36.90;29.27;;;;;;;40.28;36.61;101277.34;5034090;28;20658;-88
2023/05/30 07:10:09;;;;;;;47.90;30.33;;;;;;;40.25;36.81;101282.59;5034156;28;20510;-90
2023/05/30 07:12:35;;;;;;;44.87;32.50;;;;;;;40.26;37.10;101278.75;5032249;28;20480;-90
2023/05/30 07:15:02;;;;;;;45.10;28.40;;;;;;;40.36;37.09;101280.41;5032782;28;20434;-89
2023/05/30 07:17:28;;;;;;;36.53;27.77;;;;;;;40.38;36.90;101286.31;5034151;28;20422;-88
2023/05/30 07:19:54;;;;;;;36.53;29.00;;;;;;;40.34;36.88;101277.22;5052279;28;20465;-89
2023/05/30 07:22:20;;;;;;;38.03;26.17;;;;;;;40.39;37.18;101275.16;5034141;28;20434;-88
2023/05/30 07:24:46;;;;;;;37.60;29.37;;;;;;;40.43;36.75;101265.22;5038318;28;20189;-88
2023/05/30 07:27:12;;;;;;;44.13;31.60;;;;;;;40.43;36.78;101259.78;5038055;28;20926;-88
2023/05/30 07:29:38;;;;;;;38.40;29.30;;;;;;;40.44;36.78;101264.13;5038055;28;20215;-88
2023/05/30 07:32:04;;;;;;;47.70;32.43;;;;;;;40.50;36.80;101267.53;5038014;28;20257;-90
2023/05/30 07:34:30;;;;;;;45.67;31.50;;;;;;;40.51;36.82;101272.63;5037835;28;20266;-90
2023/05/30 07:36:56;;;;;;;45.17;32.70;;;;;;;40.52;37.06;101273.47;5037674;28;20838;-90
2023/05/30 07:39:22;;;;;;;46.13;30.97;;;;;;;40.57;36.85;101277.94;5037302;28;20263;-88
2023/05/30 07:41:48;;;;;;;42.90;30.13;;;;;;;40.54;36.98;101272.03;5035813;28;20176;-90
2023/05/30 07:44:14;;;;;;;46.13;32.17;;;;;;;40.57;36.95;101280.66;5037557;28;20483;-88
2023/05/30 07:46:40;;;;;;;45.93;31.93;;;;;;;40.57;37.01;101277.94;5037850;28;20931;-88
2023/05/30 07:49:08;;;;;;;41.60;33.57;;;;;;;40.63;37.10;101284.84;5037718;28;20445;-90
2023/05/30 07:51:33;;;;;;;48.03;34.13;;;;;;;40.59;37.07;101286.59;5037271;28;20520;-90
2023/05/30 07:53:59;;;;;;;43.13;32.90;;;;;;;40.60;36.92;101274.59;5037641;28;20817;-90
2023/05/30 07:56:28;;;;;;;39.17;32.60;;;;;;;40.67;36.92;101280.38;5038240;28;20446;-84
2023/05/30 07:59:07;;;;;;;47.23;33.73;;;;;;;40.71;37.02;101268.56;5042879;28;20498;-84
2023/05/30 08:01:37;;;;;;;38.10;31.30;;;;;;;40.78;36.85;101282.50;5032096;28;20460;-87
2023/05/30 08:04:18;;;;;;;48.73;31.63;;;;;;;40.80;36.88;101282.19;5044647;28;20419;-84
2023/05/30 08:06:46;;;;;;;37.77;29.37;;;;;;;40.78;37.07;101278.97;5040386;28;20445;-85
2023/05/30 08:09:20;;;;;;;46.97;30.43;;;;;;;40.79;37.33;101269.69;5057838;28;20454;-77
2023/05/30 08:11:49;;;;;;;45.13;31.83;;;;;;;40.78;37.47;101268.09;5051424;28;20423;-86
2023/05/30 08:14:15;;;;;;;31.03;22.73;;;;;;;40.82;36.94;101277.22;5037337;28;20423;-87
2023/05/30 08:16:42;;;;;;;37.47;23.67;;;;;;;40.91;36.94;101277.28;5038421;28;20434;-86
2023/05/30 08:19:11;;;;;;;36.93;25.70;;;;;;;40.95;37.05;101283.69;5023766;28;20469;-87
2023/05/30 08:21:46;;;;;;;44.33;25.77;;;;;;;40.91;37.39;101275.34;5035692;28;20429;-81
2023/05/30 08:24:17;;;;;;;31.90;21.40;;;;;;;41.00;37.05;101268.00;5041039;28;20859;-87
2023/05/30 08:26:45;;;;;;;29.10;20.40;;;;;;;41.04;36.95;101268.16;5043375;28;20435;-88
2023/05/30 08:29:22;;;;;;;36.20;25.03;;;;;;;41.13;36.83;101279.06;5037860;28;20484;-87
2023/05/30 08:31:49;;;;;;;30.00;20.23;;;;;;;41.00;37.36;101273.44;5038725;28;20430;-86
2023/05/30 08:34:16;;;;;;;27.30;19.20;;;;;;;41.10;36.90;101283.22;5004330;28;20449;-87
2023/05/30 08:36:42;;;;;;;19.13;10.13;;;;;;;41.18;36.47;101290.59;5054342;28;20415;-88
2023/05/30 08:39:08;;;;;;;25.80;9.33;;;;;;;41.22;36.49;101294.28;5036442;28;20470;-88
2023/05/30 08:41:34;;;;;;;19.23;9.93;;;;;;;41.27;36.77;101305.03;5036306;28;20427;-87
2023/05/30 08:44:00;;;;;;;17.10;8.00;;;;;;;41.28;36.83;101301.19;5036900;28;20430;-91
2023/05/30 08:46:28;;;;;;;20.20;10.80;;;;;;;41.25;36.93;101301.00;5036575;28;20431;-90
2023/05/30 08:48:54;;;;;;;14.50;8.77;;;;;;;41.31;36.75;101295.09;5036801;28;20457;-89
2023/05/30 08:51:38;;;;;;;11.37;7.13;;;;;;;41.33;36.51;101297.53;5037176;28;20431;-87
2023/05/30 08:54:17;;;;;;;13.03;6.30;;;;;;;41.32;36.40;101291.28;5056362;28;20434;-87
2023/05/30 08:56:47;;;;;;;12.20;7.10;;;;;;;41.47;35.94;101303.63;5033719;28;20920;-87
2023/05/30 08:59:15;;;;;;;12.27;5.87;;;;;;;41.50;36.05;101299.47;5033355;28;20473;-89
2023/05/30 09:01:42;;;;;;;10.57;4.23;;;;;;;41.52;35.14;101284.41;5043147;28;20446;-86
2023/05/30 09:04:10;;;;;;;10.00;4.50;;;;;;;41.56;35.37;101285.38;5041286;28;20415;-89
2023/05/30 09:06:37;;;;;;;12.67;8.10;;;;;;;41.42;36.09;101283.91;5025657;28;20469;-87
2023/05/30 09:09:04;;;;;;;14.87;7.50;;;;;;;41.59;35.70;101284.72;5023159;28;20424;-87
2023/05/30 09:11:30;;;;;;;12.37;4.70;;;;;;;41.69;35.15;101280.88;5028873;28;20921;-83
2023/05/30 09:13:58;;;;;;;12.70;4.27;;;;;;;41.72;35.07;101282.94;5042898;28;20933;-86
2023/05/30 09:16:25;;;;;;;12.03;5.07;;;;;;;41.74;35.24;101286.19;5036016;28;20438;-85
2023/05/30 09:18:53;;;;;;;10.80;4.60;;;;;;;41.73;34.35;101286.44;5029059;28;20471;-84
2023/05/30 09:21:20;;;;;;;9.93;4.13;;;;;;;41.72;34.59;101288.38;5019886;28;20462;-84
2023/05/30 09:23:46;;;;;;;11.27;3.90;;;;;;;41.70;34.43;101304.25;5022408;28;21038;-87
2023/05/30 09:26:15;;;;;;;9.93;5.07;;;;;;;41.70;34.72;101292.56;5017007;28;20427;-84
2023/05/30 09:28:45;;;;;;;13.43;6.03;;;;;;;41.66;34.78;101297.84;5017184;28;20448;-86
2023/05/30 09:31:11;;;;;;;13.50;5.53;;;;;;;41.64;34.90;101302.81;5016113;28;20447;-85
2023/05/30 09:33:50;;;;;;;13.80;6.23;;;;;;;41.65;35.27;101314.50;5019996;28;20423;-87
2023/05/30 09:36:21;;;;;;;10.47;4.30;;;;;;;41.72;35.38;101307.44;5014650;28;20459;-85
2023/05/30 09:38:54;;;;;;;14.40;5.73;;;;;;;41.77;35.22;101315.47;5014719;28;20558;-86
2023/05/30 09:41:21;;;;;;;11.70;6.23;;;;;;;41.80;34.96;101317.56;5022938;28;20504;-86
2023/05/30 09:43:52;;;;;;;11.80;5.00;;;;;;;41.80;34.84;101323.00;5029643;28;20419;-86
2023/05/30 09:46:19;;;;;;;15.53;9.40;;;;;;;41.77;35.16;101323.66;5031475;28;20451;-85
2023/05/30 09:48:46;;;;;;;22.03;7.83;;;;;;;41.81;34.93;101324.63;5033078;28;20420;-87
2023/05/30 09:51:12;;;;;;;15.47;5.90;;;;;;;41.84;35.00;101320.44;5032154;28;20424;-85
2023/05/30 09:53:38;;;;;;;10.20;6.23;;;;;;;41.86;35.38;101324.44;5034099;28;20480;-86
2023/05/30 09:56:05;;;;;;;10.53;5.13;;;;;;;41.83;35.13;101319.66;5030233;28;20420;-86
2023/05/30 09:58:31;;;;;;;17.17;7.97;;;;;;;41.84;35.06;101323.16;5030482;28;20499;-85
2023/05/30 10:00:59;;;;;;;13.43;7.43;;;;;;;41.82;34.98;101309.88;5023359;28;20480;-89
2023/05/30 10:03:46;;;;;;;16.17;9.83;;;;;;;41.77;35.08;101312.75;5023599;28;20196;-89
2023/05/30 10:06:22;;;;;;;16.00;9.77;;;;;;;41.85;35.29;101316.59;5013973;28;20895;-90
2023/05/30 10:08:56;;;;;;;14.97;6.57;;;;;;;41.92;35.32;101321.53;5006286;28;20501;-89
2023/05/30 10:11:25;;;;;;;18.30;8.83;;;;;;;41.97;35.35;101326.84;5029721;28;20442;-88
2023/05/30 10:13:51;;;;;;;14.17;8.13;;;;;;;41.98;34.94;101323.78;5028707;28;20445;-89
2023/05/30 10:16:28;;;;;;;14.30;7.37;;;;;;;41.86;34.74;101310.00;5037440;28;20438;-83
2023/05/30 10:19:05;;;;;;;19.27;9.93;;;;;;;41.82;35.21;101309.88;5028939;28;20334;-84
2023/05/30 10:21:34;;;;;;;17.13;9.13;;;;;;;41.92;35.11;101311.44;5007948;28;20929;-88
2023/05/30 10:24:02;;;;;;;19.00;9.47;;;;;;;41.96;35.05;101309.69;5034898;28;20937;-90
2023/05/30 10:26:31;;;;;;;19.23;9.77;;;;;;;41.98;35.22;101314.81;5034458;28;20924;-89
2023/05/30 10:29:01;;;;;;;18.90;12.00;;;;;;;42.00;34.94;101307.13;5033597;28;20411;-88
2023/05/30 10:31:28;;;;;;;23.90;13.70;;;;;;;42.06;35.26;101309.34;5052204;28;20788;-88
2023/05/30 10:33:55;;;;;;;23.27;13.10;;;;;;;42.12;35.51;101308.06;5034600;28;20427;-91
2023/05/30 10:36:21;;;;;;;21.67;13.60;;;;;;;42.14;34.96;101310.44;5034252;28;20427;-88
2023/05/30 10:39:25;;;;;;;18.37;12.90;;;;;;;42.18;35.33;101300.53;5022591;28;20458;-88
2023/05/30 10:42:00;;;;;;;21.30;12.80;;;;;;;42.21;35.48;101305.31;5034570;28;20426;-89
2023/05/30 10:44:41;;;;;;;21.23;13.23;;;;;;;42.22;35.12;101304.19;5034334;28;20437;-89
2023/05/30 10:48:02;;;;;;;20.63;12.37;;;;;;;42.28;35.36;101300.16;5034235;28;20616;-91
2023/05/30 10:50:59;;;;;;;23.30;12.73;;;;;;;42.26;35.35;101291.50;4992048;28;20447;-91
2023/05/30 10:53:26;;;;;;;17.00;12.30;;;;;;;42.34;34.93;101290.66;5022323;28;20875;-89
2023/05/30 10:55:52;;;;;;;20.57;14.20;;;;;;;42.38;35.05;101290.81;5028792;28;20428;-85
2023/05/30 10:58:42;;;;;;;16.70;11.33;;;;;;;42.44;35.12;101302.34;5035369;28;20485;-86
2023/05/30 11:01:31;;;;;;;19.93;13.23;;;;;;;42.41;35.21;101298.34;5037519;28;20446;-87
2023/05/30 11:04:04;;;;;;;23.13;13.37;;;;;;;42.45;35.32;101299.28;5038182;28;21048;-89
2023/05/30 11:06:35;;;;;;;23.53;12.60;;;;;;;42.46;35.24;101300.88;5038000;28;20535;-88
2023/05/30 11:09:17;;;;;;;22.73;15.37;;;;;;;42.47;35.11;101301.69;5038415;28;20509;-88
2023/05/30 11:11:55;;;;;;;24.60;13.50;;;;;;;42.54;35.04;101301.97;5036109;28;20504;-86
2023/05/30 11:14:34;;;;;;;23.40;16.90;;;;;;;42.52;35.26;101301.50;5037159;28;20480;-87
2023/05/30 11:17:01;;;;;;;18.33;12.03;;;;;;;42.51;35.20;101295.25;5034893;28;20503;-86
2023/05/30 11:19:37;;;;;;;22.07;13.13;;;;;;;42.50;35.06;101293.66;5033510;28;20549;-87
2023/05/30 11:22:16;;;;;;;30.10;17.50;;;;;;;42.52;35.09;101283.22;5043098;28;20988;-86